createdAt,value
2023-04-15T00:01:53.371Z,75.00
2023-04-15T00:04:21.004Z,75.79
2023-04-15T00:06:54.060Z,75.33
2023-04-15T00:09:21.638Z,75.63
2023-04-15T00:11:48.745Z,75.55
2023-04-15T00:14:15.873Z,76.59
2023-04-15T00:16:44.916Z,76.11
2023-04-15T00:19:12.399Z,75.46
2023-04-15T00:21:39.452Z,76.63
2023-04-15T00:24:06.647Z,76.43
2023-04-15T00:26:33.493Z,76.85
2023-04-15T00:29:00.575Z,76.44
2023-04-15T00:31:27.831Z,76.24
2023-04-15T00:33:54.729Z,76.67
2023-04-15T00:36:21.648Z,75.89
2023-04-15T00:38:48.477Z,76.79
2023-04-15T00:41:15.325Z,77.48
2023-04-15T00:43:42.460Z,76.70
2023-04-15T00:46:10.752Z,77.36
2023-04-15T00:48:39.135Z,77.15
2023-04-15T00:51:07.448Z,77.05
2023-04-15T00:53:34.363Z,77.36
2023-04-15T00:56:01.146Z,77.76
2023-04-15T00:58:28.359Z,77.62
2023-04-15T01:00:56.619Z,77.66
2023-04-15T01:03:23.997Z,78.43
2023-04-15T01:05:51.769Z,77.83
2023-04-15T01:08:18.970Z,77.97
2023-04-15T01:10:45.989Z,77.41
2023-04-15T01:13:13.058Z,77.77
2023-04-15T01:15:40.586Z,78.32
2023-04-15T01:18:09.475Z,77.92
2023-04-15T01:20:36.580Z,78.21
2023-04-15T01:23:03.623Z,78.72
2023-04-15T01:25:34.297Z,78.58
2023-04-15T01:28:04.301Z,78.91
2023-04-15T01:30:34.979Z,79.84
2023-04-15T01:33:02.098Z,79.81
2023-04-15T01:35:29.009Z,80.21
2023-04-15T01:38:02.695Z,79.84
2023-04-15T01:40:29.649Z,79.99
2023-04-15T01:42:56.776Z,79.88
2023-04-15T01:45:23.763Z,80.49
2023-04-15T01:47:50.870Z,81.46
2023-04-15T01:50:17.797Z,81.20
2023-04-15T01:52:44.885Z,81.00
2023-04-15T01:55:11.717Z,80.60
2023-04-15T01:57:38.454Z,82.23
2023-04-15T02:00:07.890Z,81.77
2023-04-15T02:02:34.868Z,81.23
2023-04-15T02:05:01.928Z,81.74
2023-04-15T02:07:32.656Z,81.79
2023-04-15T02:09:59.529Z,81.82
2023-04-15T02:12:27.481Z,82.00
2023-04-15T02:14:54.568Z,81.57
2023-04-15T02:17:21.433Z,81.50
2023-04-15T02:19:48.390Z,80.85
2023-04-15T02:22:19.050Z,81.62
2023-04-15T02:24:49.044Z,81.61
2023-04-15T02:27:17.376Z,81.52
2023-04-15T02:29:46.042Z,81.84
2023-04-15T02:32:13.816Z,82.26
2023-04-15T02:34:42.817Z,82.48
2023-04-15T02:37:11.602Z,82.49
2023-04-15T02:39:38.482Z,83.56
2023-04-15T02:42:06.342Z,83.80
2023-04-15T02:44:34.283Z,81.93
2023-04-15T02:47:01.256Z,81.74
2023-04-15T02:49:30.037Z,82.74
2023-04-15T02:51:58.476Z,81.64
2023-04-15T02:54:25.924Z,82.23
2023-04-15T02:56:55.550Z,81.86
2023-04-15T02:59:22.514Z,82.58
2023-04-15T03:01:49.683Z,82.95
2023-04-15T03:04:17.011Z,82.11
2023-04-15T03:06:44.205Z,81.51
2023-04-15T03:09:11.282Z,82.34
2023-04-15T03:11:40.955Z,83.00
2023-04-15T03:14:07.942Z,82.93
2023-04-15T03:16:34.768Z,83.44
2023-04-15T03:19:02.013Z,83.04
2023-04-15T03:21:29.046Z,83.56
2023-04-15T03:23:56.769Z,83.28
2023-04-15T03:26:31.881Z,83.18
2023-04-15T03:28:59.401Z,82.90
2023-04-15T03:31:26.769Z,83.88
2023-04-15T03:33:53.723Z,83.15
2023-04-15T03:36:23.270Z,82.87
2023-04-15T03:38:50.467Z,83.15
2023-04-15T03:41:17.732Z,84.08
2023-04-15T03:43:44.636Z,83.20
2023-04-15T03:46:11.623Z,83.16
2023-04-15T03:48:38.613Z,83.88
2023-04-15T03:51:05.610Z,83.39
2023-04-15T03:53:32.409Z,83.75
2023-04-15T03:55:59.309Z,83.61
2023-04-15T03:58:26.225Z,83.55
2023-04-15T04:00:53.378Z,83.58
2023-04-15T04:03:20.653Z,83.17
2023-04-15T04:05:47.820Z,83.51
2023-04-15T04:08:16.520Z,83.33
2023-04-15T04:10:44.606Z,82.99
2023-04-15T04:13:11.743Z,83.93
2023-04-15T04:15:38.663Z,84.02
2023-04-15T04:18:05.623Z,84.50
2023-04-15T04:20:32.673Z,84.29
2023-04-15T04:22:59.549Z,84.16
2023-04-15T04:25:26.523Z,84.32
2023-04-15T04:27:53.662Z,84.56
2023-04-15T04:30:20.809Z,84.72
2023-04-15T04:32:50.249Z,84.99
2023-04-15T04:35:18.312Z,84.58
2023-04-15T04:37:45.188Z,84.14
2023-04-15T04:40:12.619Z,84.95
2023-04-15T04:42:40.109Z,85.01
2023-04-15T04:45:07.730Z,84.88
2023-04-15T04:47:34.716Z,84.55
2023-04-15T04:50:01.676Z,84.82
2023-04-15T04:52:29.915Z,84.94
2023-04-15T04:54:56.922Z,85.56
2023-04-15T04:57:23.807Z,85.60
2023-04-15T04:59:50.552Z,84.10
2023-04-15T05:02:17.556Z,84.35
2023-04-15T05:04:44.459Z,84.88
2023-04-15T05:07:11.681Z,84.45
2023-04-15T05:09:38.956Z,84.70
2023-04-15T05:12:06.242Z,84.16
2023-04-15T05:14:33.513Z,84.80
2023-04-15T05:17:01.933Z,83.81
2023-04-15T05:19:32.008Z,84.66
2023-04-15T05:21:58.847Z,85.14
2023-04-15T05:24:25.693Z,85.50
2023-04-15T05:26:52.737Z,85.08
2023-04-15T05:29:19.691Z,84.96
2023-04-15T05:31:46.971Z,84.00
2023-04-15T05:34:16.082Z,84.53
2023-04-15T05:36:43.280Z,84.94
2023-04-15T05:39:10.155Z,84.94
2023-04-15T05:41:37.005Z,85.11
2023-04-15T05:44:03.885Z,84.63
2023-04-15T05:46:31.082Z,84.57
2023-04-15T05:49:01.304Z,85.30
2023-04-15T05:51:28.714Z,85.33
2023-04-15T05:53:55.927Z,84.94
2023-04-15T05:56:22.791Z,84.22
2023-04-15T05:58:50.522Z,84.96
2023-04-15T06:01:18.291Z,84.81
2023-04-15T06:03:45.341Z,85.60
2023-04-15T06:06:12.346Z,83.98
2023-04-15T06:08:39.234Z,84.31
2023-04-15T06:11:06.218Z,84.30
2023-04-15T06:13:33.233Z,84.29
2023-04-15T06:16:00.435Z,84.52
2023-04-15T06:18:27.370Z,82.94
2023-04-15T06:20:54.186Z,82.66
2023-04-15T06:23:21.678Z,83.45
2023-04-15T06:25:51.801Z,84.48
2023-04-15T06:28:18.671Z,85.50
2023-04-15T06:30:45.607Z,84.59
2023-04-15T06:33:12.770Z,83.98
2023-04-15T06:35:39.716Z,84.81
2023-04-15T06:38:06.699Z,84.93
2023-04-15T06:40:34.122Z,84.32
2023-04-15T06:43:01.148Z,84.22
2023-04-15T06:45:28.181Z,83.93
2023-04-15T06:47:55.050Z,84.27
2023-04-15T06:50:22.097Z,84.66
2023-04-15T06:52:49.241Z,84.14
2023-04-15T06:55:16.389Z,83.66
2023-04-15T06:57:43.312Z,83.16
2023-04-15T07:00:12.336Z,83.38
2023-04-15T07:02:39.506Z,84.84
2023-04-15T07:05:07.615Z,84.91
2023-04-15T07:07:34.505Z,84.99
2023-04-15T07:10:02.326Z,85.32
2023-04-15T07:12:29.327Z,85.60
2023-04-15T07:14:56.579Z,84.82
2023-04-15T07:17:23.288Z,85.23
2023-04-15T07:19:50.075Z,84.19
2023-04-15T07:22:17.025Z,83.80
2023-04-15T07:24:44.135Z,83.70
2023-04-15T07:27:11.116Z,83.63
2023-04-15T07:29:38.152Z,83.91
2023-04-15T07:32:05.439Z,82.94
2023-04-15T07:34:32.682Z,84.29
2023-04-15T07:36:59.686Z,83.83
2023-04-15T07:39:26.838Z,82.80
2023-04-15T07:41:53.663Z,82.86
2023-04-15T07:44:20.723Z,83.13
2023-04-15T07:46:48.378Z,82.06
2023-04-15T07:49:16.973Z,81.97
2023-04-15T07:51:44.678Z,81.45
2023-04-15T07:54:11.945Z,82.06
2023-04-15T07:56:38.975Z,83.18
2023-04-15T07:59:06.744Z,82.52
2023-04-15T08:01:33.910Z,82.89
2023-04-15T08:04:01.055Z,82.32
2023-04-15T08:06:28.017Z,83.67
2023-04-15T08:08:55.500Z,84.36
2023-04-15T08:11:23.589Z,84.94
2023-04-15T08:13:50.606Z,83.50
2023-04-15T08:16:23.082Z,83.35
2023-04-15T08:18:51.786Z,83.13
2023-04-15T08:21:20.547Z,82.42
2023-04-15T08:23:50.410Z,82.26
2023-04-15T08:26:18.078Z,81.71
2023-04-15T08:28:46.825Z,82.13
2023-04-15T08:31:15.848Z,81.80
2023-04-15T08:33:43.306Z,82.28
2023-04-15T08:36:10.758Z,82.74
2023-04-15T08:38:37.928Z,81.79
2023-04-15T08:41:13.026Z,82.04
2023-04-15T08:43:51.992Z,81.27
2023-04-15T08:46:19.905Z,80.51
2023-04-15T08:48:48.312Z,80.45
2023-04-15T08:51:16.598Z,81.42
2023-04-15T08:53:45.158Z,81.24
2023-04-15T08:56:14.487Z,80.01
2023-04-15T08:58:41.938Z,80.44
2023-04-15T09:01:08.969Z,80.01
2023-04-15T09:03:37.113Z,79.93
2023-04-15T09:06:06.177Z,79.95
2023-04-15T09:08:35.197Z,78.86
2023-04-15T09:11:05.831Z,77.92
2023-04-15T09:13:32.704Z,77.86
2023-04-15T09:16:04.155Z,78.28
2023-04-15T09:18:34.063Z,77.39
2023-04-15T09:21:09.288Z,76.28
2023-04-15T09:23:37.367Z,77.79
2023-04-15T09:26:05.410Z,77.73
2023-04-15T09:28:32.417Z,76.58
2023-04-15T09:31:00.635Z,75.89
2023-04-15T09:33:29.382Z,74.53
2023-04-15T09:36:04.809Z,74.13
2023-04-15T09:38:32.675Z,74.70
2023-04-15T09:41:00.259Z,73.37
2023-04-15T09:43:40.915Z,73.87
2023-04-15T09:46:07.992Z,73.78
2023-04-15T09:48:34.786Z,73.44
2023-04-15T09:51:02.407Z,72.87
2023-04-15T09:53:31.768Z,72.54
2023-04-15T09:56:03.433Z,72.13
2023-04-15T09:58:33.856Z,72.33
2023-04-15T10:01:03.351Z,72.07
2023-04-15T10:03:32.575Z,71.94
2023-04-15T10:06:01.070Z,71.22
2023-04-15T10:08:30.305Z,70.09
2023-04-15T10:10:58.004Z,68.62
2023-04-15T10:13:33.079Z,67.59
2023-04-15T10:16:12.121Z,68.56
2023-04-15T10:18:44.310Z,67.53
2023-04-15T10:21:14.203Z,67.56
2023-04-15T10:23:44.662Z,66.96
2023-04-15T10:26:13.032Z,64.14
2023-04-15T10:28:40.161Z,64.06
2023-04-15T10:31:07.916Z,64.08
2023-04-15T10:33:36.017Z,61.98
2023-04-15T10:36:03.246Z,59.37
2023-04-15T10:38:36.098Z,56.51
2023-04-15T10:41:34.892Z,57.66
2023-04-15T10:44:04.942Z,59.31
2023-04-15T10:46:39.501Z,61.79
2023-04-15T10:49:14.150Z,62.23
2023-04-15T10:51:43.409Z,62.09
2023-04-15T10:54:30.509Z,59.09
2023-04-15T10:57:06.861Z,56.99
2023-04-15T10:59:37.344Z,55.22
2023-04-15T11:02:06.926Z,56.48
2023-04-15T11:04:52.241Z,56.29
2023-04-15T11:07:47.416Z,54.77
2023-04-15T11:10:14.403Z,54.69
2023-04-15T11:12:42.213Z,53.92
2023-04-15T11:15:36.623Z,52.88
2023-04-15T11:18:20.306Z,50.04
2023-04-15T11:20:50.750Z,49.88
2023-04-15T11:23:32.326Z,46.83
2023-04-15T11:26:01.123Z,42.02
2023-04-15T11:28:29.616Z,39.64
2023-04-15T11:30:57.103Z,42.65
2023-04-15T11:33:24.848Z,47.38
2023-04-15T11:35:55.027Z,48.75
2023-04-15T11:38:22.693Z,49.28
2023-04-15T11:40:51.533Z,51.46
2023-04-15T11:43:23.581Z,50.48
2023-04-15T11:45:58.405Z,50.10
2023-04-15T11:48:30.986Z,50.58
2023-04-15T11:51:07.944Z,49.57
2023-04-15T11:53:43.658Z,48.78
2023-04-15T11:56:21.315Z,50.02
2023-04-15T11:58:51.075Z,53.60
2023-04-15T12:01:18.879Z,55.28
2023-04-15T12:03:49.934Z,56.46
2023-04-15T12:06:19.727Z,54.72
2023-04-15T12:08:56.793Z,57.05
2023-04-15T12:11:26.700Z,57.45
2023-04-15T12:14:06.137Z,57.96
2023-04-15T12:16:48.403Z,58.62
2023-04-15T12:19:30.238Z,56.95
2023-04-15T12:22:04.335Z,53.76
2023-04-15T12:24:36.060Z,55.81
2023-04-15T12:27:10.050Z,54.25
2023-04-15T12:29:39.012Z,54.88
2023-04-15T12:32:08.553Z,53.53
2023-04-15T12:34:37.611Z,53.80
2023-04-15T12:37:06.545Z,52.50
2023-04-15T12:39:36.776Z,51.17
2023-04-15T12:42:04.741Z,52.53
2023-04-15T12:44:32.005Z,51.51
2023-04-15T12:47:00.240Z,50.17
2023-04-15T12:49:28.069Z,52.20
2023-04-15T12:51:57.420Z,49.99
2023-04-15T12:54:24.480Z,48.78
2023-04-15T12:56:51.858Z,48.66
2023-04-15T12:59:18.872Z,47.93
2023-04-15T13:01:47.754Z,47.58
2023-04-15T13:04:16.591Z,48.35
2023-04-15T13:06:44.371Z,47.14
2023-04-15T13:09:11.291Z,47.18
2023-04-15T13:11:38.223Z,49.71
2023-04-15T13:14:07.465Z,50.30
2023-04-15T13:16:35.224Z,48.02
2023-04-15T13:19:03.851Z,48.28
2023-04-15T13:21:32.381Z,49.17
2023-04-15T13:23:59.916Z,47.29
2023-04-15T13:26:26.821Z,45.19
2023-04-15T13:28:53.972Z,44.42
2023-04-15T13:31:21.318Z,44.64
2023-04-15T13:33:48.219Z,45.06
2023-04-15T13:36:15.044Z,45.06
2023-04-15T13:38:41.993Z,46.65
2023-04-15T13:41:08.750Z,45.74
2023-04-15T13:43:36.069Z,46.44
2023-04-15T13:46:02.972Z,47.33
2023-04-15T13:48:29.872Z,48.59
2023-04-15T13:50:56.794Z,49.32
2023-04-15T13:53:33.838Z,48.76
2023-04-15T13:56:09.266Z,48.85
2023-04-15T13:58:36.954Z,47.69
2023-04-15T14:01:05.746Z,50.11
2023-04-15T14:03:34.029Z,50.23
2023-04-15T14:06:01.318Z,50.82
2023-04-15T14:08:28.232Z,50.43
2023-04-15T14:10:55.107Z,51.20
2023-04-15T14:13:22.088Z,50.47
2023-04-15T14:15:49.016Z,50.05
2023-04-15T14:18:15.903Z,47.93
2023-04-15T14:20:42.949Z,49.56
2023-04-15T14:23:10.108Z,48.66
2023-04-15T14:25:39.411Z,48.62
2023-04-15T14:28:06.488Z,45.81
2023-04-15T14:30:33.578Z,48.35
2023-04-15T14:33:00.662Z,50.05
2023-04-15T14:35:27.967Z,48.74
2023-04-15T14:37:55.554Z,50.88
2023-04-15T14:40:23.025Z,50.51
2023-04-15T14:42:50.003Z,49.39
2023-04-15T14:45:17.940Z,50.83
2023-04-15T14:47:45.323Z,49.61
2023-04-15T14:50:12.506Z,49.79
2023-04-15T14:52:39.672Z,49.60
2023-04-15T14:55:12.434Z,49.80
2023-04-15T14:57:40.885Z,49.52
2023-04-15T15:00:10.126Z,49.59
2023-04-15T15:02:40.300Z,50.37
2023-04-15T15:05:08.742Z,51.64
2023-04-15T15:07:37.453Z,53.28
2023-04-15T15:10:05.551Z,52.67
2023-04-15T15:12:33.304Z,53.14
2023-04-15T15:15:01.622Z,53.58
2023-04-15T15:17:30.174Z,53.83
2023-04-15T15:19:57.616Z,53.96
2023-04-15T15:22:26.008Z,52.51
2023-04-15T15:24:53.699Z,53.25
2023-04-15T15:27:20.844Z,53.12
2023-04-15T15:29:47.917Z,52.91
2023-04-15T15:32:14.821Z,53.83
2023-04-15T15:34:41.713Z,53.48
2023-04-15T15:37:08.645Z,54.58
2023-04-15T15:39:36.092Z,55.27
2023-04-15T15:42:03.166Z,55.04
2023-04-15T15:44:30.029Z,54.00
2023-04-15T15:46:57.025Z,54.61
2023-04-15T15:49:25.604Z,54.73
2023-04-15T15:51:52.688Z,55.29
2023-04-15T15:54:19.565Z,55.92
2023-04-15T15:56:46.550Z,56.02
2023-04-15T15:59:13.485Z,56.41
2023-04-15T16:01:40.603Z,58.30
2023-04-15T16:04:07.969Z,58.59
2023-04-15T16:06:35.368Z,58.63
2023-04-15T16:09:02.946Z,58.85
2023-04-15T16:11:30.494Z,59.08
2023-04-15T16:13:57.479Z,59.13
2023-04-15T16:16:24.643Z,60.16
2023-04-15T16:18:51.699Z,60.21
2023-04-15T16:21:19.785Z,61.07
2023-04-15T16:23:46.785Z,62.23
2023-04-15T16:26:13.764Z,61.63
2023-04-15T16:28:40.851Z,62.24
2023-04-15T16:31:07.863Z,61.15
2023-04-15T16:33:34.952Z,61.80
2023-04-15T16:36:01.969Z,62.43
2023-04-15T16:38:28.807Z,62.59
2023-04-15T16:40:59.964Z,62.60
2023-04-15T16:43:27.297Z,62.11
2023-04-15T16:45:54.461Z,62.90
2023-04-15T16:48:21.651Z,62.98
2023-04-15T16:50:49.473Z,62.79
2023-04-15T16:53:16.650Z,63.50
2023-04-15T16:55:43.755Z,64.00
2023-04-15T16:58:10.563Z,63.50
2023-04-15T17:00:37.646Z,64.34
2023-04-15T17:03:06.085Z,64.12
2023-04-15T17:05:33.433Z,63.93
2023-04-15T17:08:00.433Z,63.79
2023-04-15T17:10:28.007Z,63.46
2023-04-15T17:12:58.394Z,63.13
2023-04-15T17:15:26.333Z,63.78
2023-04-15T17:17:53.399Z,63.60
2023-04-15T17:20:20.483Z,62.65
2023-04-15T17:22:48.315Z,63.26
2023-04-15T17:25:15.402Z,63.57
2023-04-15T17:27:42.484Z,63.48
2023-04-15T17:30:09.900Z,63.87
2023-04-15T17:32:37.519Z,63.93
2023-04-15T17:35:06.653Z,64.54
2023-04-15T17:37:34.514Z,63.61
2023-04-15T17:40:01.621Z,64.31
2023-04-15T17:42:28.910Z,65.46
2023-04-15T17:44:55.836Z,64.86
2023-04-15T17:47:22.697Z,65.43
2023-04-15T17:49:49.665Z,65.16
2023-04-15T17:52:16.678Z,65.52
2023-04-15T17:54:43.667Z,65.70
2023-04-15T17:57:10.879Z,64.56
2023-04-15T17:59:37.693Z,65.20
2023-04-15T18:02:04.586Z,65.64
2023-04-15T18:04:31.945Z,66.22
2023-04-15T18:06:58.954Z,65.54
2023-04-15T18:09:25.988Z,64.74
2023-04-15T18:11:53.027Z,66.20
2023-04-15T18:14:31.104Z,65.72
2023-04-15T18:17:00.833Z,65.51
2023-04-15T18:19:30.549Z,65.63
2023-04-15T18:22:00.758Z,66.14
2023-04-15T18:24:28.340Z,66.58
2023-04-15T18:26:56.770Z,66.52
2023-04-15T18:29:23.864Z,66.34
2023-04-15T18:31:51.362Z,67.76
2023-04-15T18:34:18.567Z,67.12
2023-04-15T18:36:46.516Z,67.21
2023-04-15T18:39:13.680Z,67.33
2023-04-15T18:41:40.728Z,67.22
2023-04-15T18:44:07.648Z,67.47
2023-04-15T18:46:34.517Z,68.52
2023-04-15T18:49:01.618Z,67.64
2023-04-15T18:51:28.682Z,69.00
2023-04-15T18:53:55.940Z,69.47
2023-04-15T18:56:23.014Z,68.32
2023-04-15T18:59:27.476Z,68.36
2023-04-15T19:01:36.973Z,68.51
2023-04-15T19:04:04.038Z,67.82
2023-04-15T19:06:31.312Z,68.59
2023-04-15T19:08:59.551Z,68.99
2023-04-15T19:11:26.631Z,69.01
2023-04-15T19:13:53.786Z,68.37
2023-04-15T19:16:21.300Z,67.90
2023-04-15T19:18:48.297Z,69.87
2023-04-15T19:21:16.071Z,69.67
2023-04-15T19:23:43.469Z,68.92
2023-04-15T19:26:12.004Z,69.88
2023-04-15T19:28:39.461Z,69.56
2023-04-15T19:31:06.900Z,69.47
2023-04-15T19:33:34.386Z,68.91
2023-04-15T19:36:04.385Z,69.34
2023-04-15T19:38:35.255Z,68.29
2023-04-15T19:41:02.319Z,67.82
2023-04-15T19:43:30.378Z,67.64
2023-04-15T19:45:57.203Z,67.31
2023-04-15T19:48:25.186Z,67.06
2023-04-15T19:50:52.212Z,67.27
2023-04-15T19:53:19.193Z,68.45
2023-04-15T19:55:47.527Z,68.53
2023-04-15T19:58:14.667Z,69.03
2023-04-15T20:00:41.657Z,68.89
2023-04-15T20:03:08.628Z,69.50
2023-04-15T20:05:35.928Z,68.83
2023-04-15T20:08:03.436Z,70.19
2023-04-15T20:10:31.943Z,70.31
2023-04-15T20:12:59.302Z,69.83
2023-04-15T20:15:26.727Z,69.69
2023-04-15T20:17:53.833Z,70.16
2023-04-15T20:20:21.091Z,69.94
2023-04-15T20:22:48.611Z,70.26
2023-04-15T20:25:15.506Z,70.25
2023-04-15T20:27:42.552Z,70.17
2023-04-15T20:30:09.813Z,69.35
2023-04-15T20:32:37.071Z,70.30
2023-04-15T20:35:05.370Z,69.81
2023-04-15T20:37:33.810Z,70.10
2023-04-15T20:40:01.550Z,69.70
2023-04-15T20:42:32.193Z,70.83
2023-04-15T20:44:58.999Z,71.84
2023-04-15T20:47:26.376Z,70.99
2023-04-15T20:49:54.227Z,71.86
2023-04-15T20:52:21.428Z,72.39
2023-04-15T20:54:48.302Z,72.27
2023-04-15T20:57:15.301Z,72.60
2023-04-15T20:59:42.137Z,73.31
2023-04-15T21:02:09.253Z,73.50
2023-04-15T21:04:38.246Z,73.28
2023-04-15T21:07:05.322Z,74.21
2023-04-15T21:09:32.380Z,74.22
2023-04-15T21:12:01.907Z,73.83
2023-04-15T21:14:29.829Z,73.93
2023-04-15T21:16:58.275Z,73.38
2023-04-15T21:19:25.485Z,73.56
2023-04-15T21:21:52.392Z,73.98
2023-04-15T21:24:19.318Z,73.87
2023-04-15T21:26:46.071Z,74.48
2023-04-15T21:29:13.230Z,74.49
2023-04-15T21:31:41.042Z,74.53
2023-04-15T21:34:08.519Z,74.01
2023-04-15T21:36:36.180Z,75.06
2023-04-15T21:39:03.816Z,74.28
2023-04-15T21:41:31.323Z,74.90
2023-04-15T21:43:58.434Z,74.96
2023-04-15T21:46:32.864Z,74.90
2023-04-15T21:49:02.547Z,74.82
2023-04-15T21:51:29.461Z,74.51
2023-04-15T21:53:56.855Z,74.27
2023-04-15T21:56:24.888Z,74.70
2023-04-15T21:58:57.201Z,75.10
2023-04-15T22:01:24.773Z,75.25
2023-04-15T22:03:52.553Z,75.00
2023-04-15T22:06:19.864Z,74.43
2023-04-15T22:08:56.158Z,74.90
2023-04-15T22:11:30.636Z,74.82
2023-04-15T22:13:58.912Z,75.07
2023-04-15T22:16:26.554Z,74.42
2023-04-15T22:18:53.828Z,75.41
2023-04-15T22:21:20.947Z,75.44
2023-04-15T22:23:50.143Z,75.10
2023-04-15T22:26:17.248Z,75.51
2023-04-15T22:28:44.253Z,75.60
2023-04-15T22:31:11.590Z,75.96
2023-04-15T22:33:39.202Z,75.39
2023-04-15T22:36:06.531Z,75.25
2023-04-15T22:38:33.570Z,74.49
2023-04-15T22:41:00.843Z,75.13
2023-04-15T22:43:27.955Z,75.83
2023-04-15T22:45:55.329Z,75.13
2023-04-15T22:48:22.878Z,75.11
2023-04-15T22:50:50.162Z,75.57
2023-04-15T22:53:17.984Z,74.61
2023-04-15T22:55:47.248Z,75.17
2023-04-15T22:58:15.186Z,74.64
2023-04-15T23:00:42.470Z,76.25
2023-04-15T23:03:09.710Z,75.82
2023-04-15T23:05:37.077Z,75.96
2023-04-15T23:08:03.997Z,75.28
2023-04-15T23:10:30.881Z,75.18
2023-04-15T23:12:57.903Z,75.15
2023-04-15T23:15:24.993Z,75.32
2023-04-15T23:17:52.126Z,75.51
2023-04-15T23:20:19.411Z,75.37
2023-04-15T23:22:46.492Z,74.99
2023-04-15T23:25:13.666Z,75.35
2023-04-15T23:27:40.552Z,75.79
2023-04-15T23:30:08.079Z,74.87
2023-04-15T23:32:35.243Z,74.85
2023-04-15T23:35:02.298Z,74.72
2023-04-15T23:37:31.839Z,75.46
2023-04-15T23:39:58.684Z,76.35
2023-04-15T23:42:26.217Z,76.32
2023-04-15T23:44:53.228Z,75.49
2023-04-15T23:47:20.032Z,77.45
2023-04-15T23:49:47.318Z,78.07
2023-04-15T23:52:14.191Z,76.92
2023-04-15T23:54:41.312Z,77.73
2023-04-15T23:57:08.402Z,77.54
2023-04-15T23:59:35.195Z,78.50
